Aviation Digital Data Service (ADDS)

Output produced by METARs form (1509 UTC 03 September 2015)
found at http://aviationweather.gov/adds/metars/
 
KSYR 031310Z 0313/0412 VRB03KT 5SM BR BKN015 OVC040 
     FM031400 31005KT P6SM SCT040 BKN250